To NAV CANADA Home Page Login to a new session Search on AWWS site Feedback and Comments Disclaimer Vers la page française équivalente Tips FAQ What's new on the site To the Forecasts and Observations / NOTAM section To "File a Flight Plan" website Publications and other links Update of the User's profile FIC Telephone Numbers My Weather Data Folder Route Weather Data Regional Weather Data Local Weather Data To the Forecasts and Observations / NOTAM section
Request Generated 09/26/2016 at 12:12:35 UTC . Weather information available at that time is displayed.

METAR/TAF

RANKIN INLET/NU    

METAR CYRT 261200Z 14013G19KT 6SM -RA OVC005 06/06 A2969 RMK ST8
SLP057=
METAR CYRT 261100Z 13015G20KT 8SM -RA OVC005 06/05 A2969 RMK ST8
SLP057=
METAR CYRT 261000Z 14015G20KT 8SM -RA OVC005 06/05 A2969 RMK ST8
SLP059=

TAF CYRT 261139Z 2612/2624 13015G25KT P6SM -RA SCT006 OVC012 TEMPO
2612/2621 2SM -RA BR OVC005
BECMG 2619/2621 34015G25KT
FM262100 34015G25KT P6SM -RA OVC020 TEMPO 2621/2624 3SM -RA BR
BKN009
RMK NXT FCST BY 261800Z=
Your time UTC time
Weather data provided by Environment Canada and NAV CANADA